createdAt,value
2022-12-28T00:01:28.515Z,157391.75
2022-12-28T00:03:58.581Z,157391.75
2022-12-28T00:06:26.460Z,157389.13
2022-12-28T00:08:54.830Z,157395.75
2022-12-28T00:11:28.336Z,157385.13
2022-12-28T00:14:00.356Z,157391.75
2022-12-28T00:16:36.187Z,157393.13
2022-12-28T00:19:06.782Z,157378.53
2022-12-28T00:21:34.657Z,157394.44
2022-12-28T00:24:02.642Z,157394.44
2022-12-28T00:26:32.110Z,157390.44
2022-12-28T00:29:04.682Z,157385.13
2022-12-28T00:31:34.228Z,157385.13
2022-12-28T00:34:02.916Z,157377.16
2022-12-28T00:37:09.999Z,157361.25
2022-12-28T00:39:22.230Z,157361.25
2022-12-28T00:41:49.778Z,157370.53
2022-12-28T00:44:17.158Z,157358.63
2022-12-28T00:46:44.697Z,157367.88
2022-12-28T00:49:11.841Z,157366.56
2022-12-28T00:51:39.356Z,157374.53
2022-12-28T00:54:06.850Z,157350.66
2022-12-28T00:56:34.376Z,157354.59
2022-12-28T00:59:01.664Z,157355.94
2022-12-28T01:01:29.690Z,157350.66
2022-12-28T01:03:59.887Z,157340.00
2022-12-28T01:06:29.638Z,157324.09
2022-12-28T01:08:58.161Z,157326.75
2022-12-28T01:11:30.053Z,157300.19
2022-12-28T01:14:00.886Z,157312.13
2022-12-28T01:16:34.533Z,157294.91
2022-12-28T01:19:05.356Z,157271.00
2022-12-28T01:21:34.416Z,157268.38
2022-12-28T01:24:03.117Z,157280.31
2022-12-28T01:26:32.885Z,157265.69
2022-12-28T01:29:00.430Z,157253.78
2022-12-28T01:31:28.227Z,157253.78
2022-12-28T01:33:55.531Z,157255.09
2022-12-28T01:36:24.966Z,157229.84
2022-12-28T01:38:57.046Z,157236.50
2022-12-28T01:41:25.552Z,157233.88
2022-12-28T01:43:52.884Z,157211.31
2022-12-28T01:46:43.396Z,157212.63
2022-12-28T01:49:18.619Z,157219.28
2022-12-28T01:52:00.864Z,157215.28
2022-12-28T01:54:31.089Z,157211.31
2022-12-28T01:56:58.793Z,157199.38
2022-12-28T01:59:28.692Z,157195.38
2022-12-28T02:01:57.014Z,157209.94
2022-12-28T02:04:25.261Z,157198.03
2022-12-28T02:06:53.284Z,157196.72
2022-12-28T02:09:24.104Z,157194.03
2022-12-28T02:11:51.960Z,157192.72
2022-12-28T02:14:21.874Z,157184.78
2022-12-28T02:16:53.463Z,157138.31
2022-12-28T02:19:30.329Z,157122.44
2022-12-28T02:22:10.389Z,157115.78
2022-12-28T02:25:11.574Z,157109.16
2022-12-28T02:27:59.333Z,157093.25
2022-12-28T02:30:26.703Z,157069.34
2022-12-28T02:33:06.579Z,157064.09
2022-12-28T02:35:52.372Z,157045.50
2022-12-28T02:38:38.124Z,157029.59
2022-12-28T02:41:14.484Z,157003.09
2022-12-28T02:43:42.012Z,156981.88
2022-12-28T02:46:33.722Z,156977.88
2022-12-28T02:49:19.636Z,156959.34
2022-12-28T02:52:24.163Z,156936.78
2022-12-28T02:55:29.375Z,156918.25
2022-12-28T02:58:34.090Z,156900.97
2022-12-28T03:01:24.707Z,156881.09
2022-12-28T03:04:15.110Z,156870.53
2022-12-28T03:07:07.109Z,156851.94
2022-12-28T03:09:41.995Z,156844.00
2022-12-28T03:12:59.273Z,156820.16
2022-12-28T03:15:30.276Z,156814.84
2022-12-28T03:18:23.509Z,156791.03
2022-12-28T03:21:11.194Z,156784.41
2022-12-28T03:23:59.934Z,156775.09
2022-12-28T03:26:48.809Z,156759.19
2022-12-28T03:29:35.941Z,156748.63
2022-12-28T03:32:03.681Z,156744.63
2022-12-28T03:34:33.318Z,156728.75
2022-12-28T03:37:19.087Z,156732.69
2022-12-28T03:40:05.863Z,156720.81
2022-12-28T03:43:07.985Z,156742.00
2022-12-28T03:45:45.974Z,156711.50
2022-12-28T03:48:16.295Z,156712.81
2022-12-28T03:50:46.840Z,156735.38
2022-12-28T03:53:17.959Z,156706.19
2022-12-28T03:55:45.402Z,156723.44
2022-12-28T03:58:15.135Z,156714.19
2022-12-28T04:00:42.506Z,156719.44
2022-12-28T04:03:09.797Z,156710.19
2022-12-28T04:05:37.346Z,156714.19
2022-12-28T04:08:05.015Z,156708.88
2022-12-28T04:10:32.384Z,156730.06
2022-12-28T04:12:59.755Z,156730.06
2022-12-28T04:15:56.041Z,156734.00
2022-12-28T04:18:23.334Z,156720.81
2022-12-28T04:20:50.870Z,156720.81
2022-12-28T04:23:18.322Z,156702.25
2022-12-28T04:26:07.923Z,156707.56
2022-12-28T04:28:35.657Z,156706.19
2022-12-28T04:31:35.395Z,156685.00
2022-12-28T04:34:19.066Z,156678.38
2022-12-28T04:36:54.263Z,156679.75
2022-12-28T04:39:22.793Z,156659.88
2022-12-28T04:41:50.180Z,156651.91
2022-12-28T04:44:17.338Z,156653.25
2022-12-28T04:46:44.922Z,156638.66
2022-12-28T04:49:12.065Z,156624.09
2022-12-28T04:51:39.563Z,156610.84
2022-12-28T04:54:06.871Z,156601.59
2022-12-28T04:56:34.196Z,156600.25
2022-12-28T04:59:01.359Z,156593.63
2022-12-28T05:01:29.059Z,156567.16
2022-12-28T05:03:59.459Z,156588.34
2022-12-28T05:06:28.177Z,156576.44
2022-12-28T05:08:56.910Z,156594.97
2022-12-28T05:11:27.854Z,156591.00
2022-12-28T05:13:55.222Z,156579.06
2022-12-28T05:16:24.309Z,156557.88
2022-12-28T05:18:51.758Z,156560.56
2022-12-28T05:21:21.961Z,156569.81
2022-12-28T05:23:49.917Z,156571.13
2022-12-28T05:26:19.533Z,156559.19
2022-12-28T05:28:46.631Z,156546.00
2022-12-28T05:31:16.716Z,156527.44
2022-12-28T05:33:44.546Z,156534.06
2022-12-28T05:36:17.199Z,156535.38
2022-12-28T05:38:44.622Z,156504.94
2022-12-28T05:41:14.645Z,156522.13
2022-12-28T05:43:42.927Z,156523.44
2022-12-28T05:46:19.544Z,156528.75
2022-12-28T05:48:47.207Z,156531.38
2022-12-28T05:51:17.261Z,156523.44
2022-12-28T05:53:44.946Z,156519.50
2022-12-28T05:56:15.056Z,156512.88
2022-12-28T05:58:44.685Z,156502.25
2022-12-28T06:01:18.424Z,156504.94
2022-12-28T06:03:47.336Z,156483.75
2022-12-28T06:06:17.143Z,156485.06
2022-12-28T06:08:45.760Z,156491.69
2022-12-28T06:11:16.755Z,156477.13
2022-12-28T06:13:43.960Z,156477.13
2022-12-28T06:16:17.181Z,156479.75
2022-12-28T06:18:45.174Z,156475.81
2022-12-28T06:21:23.862Z,156471.84
2022-12-28T06:23:51.534Z,156473.16
2022-12-28T06:26:21.740Z,156457.28
2022-12-28T06:28:49.765Z,156497.00
2022-12-28T06:31:24.953Z,156483.75
2022-12-28T06:33:54.359Z,156487.72
2022-12-28T06:36:27.028Z,156498.31
2022-12-28T06:38:55.994Z,156502.25
2022-12-28T06:41:23.713Z,156519.50
2022-12-28T06:43:51.569Z,156507.56
2022-12-28T06:46:20.480Z,156507.56
2022-12-28T06:48:47.800Z,156510.19
2022-12-28T06:51:20.197Z,156495.63
2022-12-28T06:53:48.484Z,156495.63
2022-12-28T06:56:35.560Z,156498.31
2022-12-28T06:59:04.286Z,156493.00
2022-12-28T07:01:39.735Z,156470.53
2022-12-28T07:04:09.328Z,156493.00
2022-12-28T07:06:40.127Z,156507.56
2022-12-28T07:09:10.587Z,156498.31
2022-12-28T07:11:38.449Z,156498.31
2022-12-28T07:14:05.723Z,156516.81
2022-12-28T07:19:00.236Z,156531.38
2022-12-28T07:21:39.129Z,156544.63
2022-12-28T07:24:07.113Z,156561.88
2022-12-28T07:26:36.256Z,156573.78
2022-12-28T07:29:05.193Z,156585.69
2022-12-28T07:31:41.768Z,156589.69
2022-12-28T07:34:12.148Z,156604.22
2022-12-28T07:36:39.722Z,156594.97
2022-12-28T07:39:06.959Z,156598.94
2022-12-28T07:41:36.327Z,156624.09
2022-12-28T07:44:06.242Z,156629.38
2022-12-28T07:46:35.969Z,156633.38
2022-12-28T07:49:03.631Z,156649.25
2022-12-28T07:51:33.281Z,156654.56
2022-12-28T07:54:01.108Z,156661.19
2022-12-28T07:56:30.566Z,156662.50
2022-12-28T07:58:59.732Z,156677.06
2022-12-28T08:01:29.871Z,156685.00
2022-12-28T08:03:59.267Z,156691.63
2022-12-28T08:06:28.084Z,156698.25
2022-12-28T08:08:58.490Z,156732.69
2022-12-28T08:11:31.885Z,156726.06
2022-12-28T08:14:00.217Z,156727.38
2022-12-28T08:16:29.354Z,156732.69
2022-12-28T08:18:56.970Z,156732.69
2022-12-28T08:21:31.255Z,156739.31
2022-12-28T08:23:59.492Z,156745.94
2022-12-28T08:26:33.027Z,156761.84
2022-12-28T08:29:02.267Z,156785.72
2022-12-28T08:31:35.792Z,156814.84
2022-12-28T08:34:04.986Z,156825.47
2022-12-28T08:36:33.054Z,156828.13
2022-12-28T08:39:01.301Z,156871.84
2022-12-28T08:41:30.222Z,156875.81
2022-12-28T08:43:57.892Z,156897.03
2022-12-28T08:46:28.000Z,156924.88
2022-12-28T08:48:56.824Z,156938.13
2022-12-28T08:51:27.378Z,156951.41
2022-12-28T08:53:54.840Z,156968.59
2022-12-28T08:56:28.208Z,156991.13
2022-12-28T08:58:56.886Z,157008.41
2022-12-28T09:01:27.163Z,157004.41
2022-12-28T09:03:56.207Z,157032.25
2022-12-28T09:06:33.358Z,157038.88
2022-12-28T09:09:06.665Z,157053.47
2022-12-28T09:11:36.216Z,157069.34
2022-12-28T09:14:04.704Z,157064.09
2022-12-28T09:16:32.431Z,157086.63
2022-12-28T09:19:01.916Z,157105.16
2022-12-28T09:21:31.963Z,157114.47
2022-12-28T09:23:59.458Z,157135.69
2022-12-28T09:26:32.416Z,157147.66
2022-12-28T09:29:01.424Z,157178.13
2022-12-28T09:31:31.689Z,157187.41
2022-12-28T09:36:50.223Z,157233.88
2022-12-28T09:39:19.893Z,157251.09
2022-12-28T09:42:05.403Z,157256.41
2022-12-28T09:44:38.713Z,157277.63
2022-12-28T09:47:12.684Z,157289.59
2022-12-28T09:49:59.295Z,157316.16
2022-12-28T09:52:34.274Z,157333.38
2022-12-28T09:55:11.637Z,157332.06
2022-12-28T09:57:42.484Z,157345.34
2022-12-28T10:00:18.551Z,157374.53
2022-12-28T10:02:56.090Z,157399.75
2022-12-28T10:05:23.712Z,157426.28
2022-12-28T10:07:52.858Z,157431.59
2022-12-28T10:10:21.975Z,157459.47
2022-12-28T10:12:51.309Z,157471.44
2022-12-28T10:15:18.732Z,157492.69
2022-12-28T10:17:46.333Z,157515.25
2022-12-28T10:20:17.392Z,157543.13
2022-12-28T10:22:50.283Z,157544.44
2022-12-28T10:25:21.110Z,157560.38
2022-12-28T10:27:49.774Z,157573.66
2022-12-28T10:30:26.953Z,157583.00
2022-12-28T10:33:02.556Z,157597.59
2022-12-28T10:35:30.825Z,157612.19
2022-12-28T10:38:04.430Z,157621.47
2022-12-28T10:40:38.129Z,157610.88
2022-12-28T10:45:55.297Z,157648.06
2022-12-28T10:48:27.856Z,157658.66
2022-12-28T10:51:11.546Z,157670.63
2022-12-28T10:53:39.528Z,157677.28
2022-12-28T10:56:13.253Z,157685.25
2022-12-28T10:58:43.148Z,157670.63
2022-12-28T11:01:13.600Z,157690.56
2022-12-28T11:03:20.601Z,157637.41
2022-12-28T11:03:56.821Z,157702.53
2022-12-28T11:06:29.010Z,157710.50
2022-12-28T11:09:02.084Z,157697.22
2022-12-28T11:11:30.664Z,157709.19
2022-12-28T11:14:19.897Z,157693.22
2022-12-28T11:16:47.622Z,157685.25
2022-12-28T11:19:15.449Z,157677.28
2022-12-28T11:21:43.624Z,157673.31
2022-12-28T11:24:14.355Z,157677.28
2022-12-28T11:26:50.071Z,157677.28
2022-12-28T11:29:19.050Z,157678.59
2022-12-28T11:32:01.084Z,157681.28
2022-12-28T11:34:29.848Z,157665.31
2022-12-28T11:36:57.542Z,157681.28
2022-12-28T11:39:28.027Z,157671.94
2022-12-28T11:42:38.573Z,157681.28
2022-12-28T11:44:53.435Z,157660.03
2022-12-28T11:47:28.479Z,157664.00
2022-12-28T11:50:36.758Z,157664.00
2022-12-28T11:53:19.449Z,157666.69
2022-12-28T11:56:11.085Z,157664.00
2022-12-28T11:58:41.578Z,157670.63
2022-12-28T12:01:31.059Z,157671.94
2022-12-28T12:03:58.535Z,157668.00
2022-12-28T12:06:45.397Z,157669.31
2022-12-28T12:09:24.957Z,157674.63
2022-12-28T12:12:01.026Z,157673.31
2022-12-28T12:14:31.277Z,157686.56
2022-12-28T12:17:03.748Z,157666.69
2022-12-28T12:19:33.962Z,157666.69
2022-12-28T12:22:15.492Z,157679.97
2022-12-28T12:24:50.636Z,157685.25
2022-12-28T12:27:23.539Z,157678.59
2022-12-28T12:30:00.968Z,157658.66
2022-12-28T12:32:49.617Z,157661.34
2022-12-28T12:35:23.148Z,157649.38
2022-12-28T12:38:09.456Z,157656.03
2022-12-28T12:40:58.628Z,157644.06
2022-12-28T12:43:33.683Z,157644.06
2022-12-28T12:46:06.468Z,157626.81
2022-12-28T12:48:34.452Z,157629.44
2022-12-28T12:51:11.136Z,157638.78
2022-12-28T12:53:57.271Z,157622.81
2022-12-28T12:56:24.437Z,157628.13
2022-12-28T12:59:11.088Z,157629.44
2022-12-28T13:01:57.229Z,157633.44
2022-12-28T13:04:27.906Z,157637.41
2022-12-28T13:07:03.819Z,157634.78
2022-12-28T13:09:33.552Z,157628.13
2022-12-28T13:12:01.907Z,157632.13
2022-12-28T13:14:30.230Z,157629.44
2022-12-28T13:16:59.100Z,157620.16
2022-12-28T13:19:28.601Z,157633.44
2022-12-28T13:21:59.405Z,157652.06
2022-12-28T13:24:29.100Z,157638.78
2022-12-28T13:26:58.697Z,157648.06
2022-12-28T13:29:28.294Z,157653.38
2022-12-28T13:31:56.033Z,157644.06
2022-12-28T13:34:24.964Z,157652.06
2022-12-28T13:36:53.921Z,157646.75
2022-12-28T13:39:21.756Z,157645.41
2022-12-28T13:41:54.469Z,157642.72
2022-12-28T13:44:29.541Z,157636.09
2022-12-28T13:47:30.798Z,157641.41
2022-12-28T13:50:00.503Z,157646.75
2022-12-28T13:52:32.574Z,157649.38
2022-12-28T13:55:05.147Z,157629.44
2022-12-28T13:57:46.830Z,157646.75
2022-12-28T14:00:20.802Z,157653.38
2022-12-28T14:02:51.351Z,157649.38
2022-12-28T14:05:26.245Z,157642.72
2022-12-28T14:07:55.104Z,157646.75
2022-12-28T14:10:22.607Z,157626.81
2022-12-28T14:12:50.786Z,157612.19
2022-12-28T14:15:18.961Z,157597.59
2022-12-28T14:17:48.082Z,157602.94
2022-12-28T14:20:15.383Z,157592.28
2022-12-28T14:22:43.195Z,157583.00
2022-12-28T14:25:18.666Z,157583.00
2022-12-28T14:27:59.207Z,157577.66
2022-12-28T14:30:30.280Z,157572.34
2022-12-28T14:33:04.928Z,157568.38
2022-12-28T14:35:35.884Z,157572.34
2022-12-28T14:38:03.486Z,157568.38
2022-12-28T14:40:33.852Z,157573.66
2022-12-28T14:43:06.963Z,157575.03
2022-12-28T14:46:04.928Z,157577.66
2022-12-28T14:48:35.738Z,157575.03
2022-12-28T14:51:15.421Z,157581.66
2022-12-28T14:53:45.604Z,157578.97
2022-12-28T14:56:16.472Z,157578.97
2022-12-28T14:58:54.474Z,157577.66
2022-12-28T15:01:23.379Z,157592.28
2022-12-28T15:04:44.887Z,157588.25
2022-12-28T15:07:12.287Z,157608.19
2022-12-28T15:09:41.278Z,157612.19
2022-12-28T15:12:09.868Z,157610.88
2022-12-28T15:14:38.223Z,157614.84
2022-12-28T15:17:05.742Z,157614.84
2022-12-28T15:19:34.625Z,157618.84
2022-12-28T15:22:02.251Z,157624.16
2022-12-28T15:24:33.851Z,157633.44
2022-12-28T15:27:03.021Z,157648.06
2022-12-28T15:32:18.580Z,157640.09
2022-12-28T15:34:46.368Z,157652.06
2022-12-28T15:37:13.576Z,157658.66
2022-12-28T15:39:41.264Z,157649.38
2022-12-28T15:42:09.002Z,157661.34
2022-12-28T15:44:36.703Z,157648.06
2022-12-28T15:47:03.948Z,157664.00
2022-12-28T15:49:32.651Z,157661.34
2022-12-28T15:51:59.975Z,157664.00
2022-12-28T15:54:27.597Z,157664.00
2022-12-28T15:56:55.908Z,157671.94
2022-12-28T15:59:23.953Z,157665.31
2022-12-28T16:01:51.716Z,157666.69
2022-12-28T16:04:19.484Z,157661.34
2022-12-28T16:06:46.778Z,157656.03
2022-12-28T16:09:14.828Z,157669.31
2022-12-28T16:11:43.078Z,157660.03
2022-12-28T16:14:15.497Z,157638.78
2022-12-28T16:16:43.000Z,157636.09
2022-12-28T16:19:13.462Z,157645.41
2022-12-28T16:21:41.133Z,157638.78
2022-12-28T16:24:09.125Z,157640.09
2022-12-28T16:26:36.484Z,157637.41
2022-12-28T16:29:04.561Z,157634.78
2022-12-28T16:31:36.798Z,157632.13
2022-12-28T16:34:07.766Z,157637.41
2022-12-28T16:36:35.339Z,157634.78
2022-12-28T16:39:09.206Z,157646.75
2022-12-28T16:41:37.395Z,157649.38
2022-12-28T16:44:13.626Z,157664.00
2022-12-28T16:46:40.936Z,157664.00
2022-12-28T16:49:11.199Z,157668.00
2022-12-28T16:51:40.921Z,157673.31
2022-12-28T16:54:08.900Z,157683.91
2022-12-28T16:56:36.199Z,157671.94
2022-12-28T16:59:03.902Z,157691.88
2022-12-28T17:01:31.271Z,157687.94
2022-12-28T17:04:04.150Z,157703.88
2022-12-28T17:06:32.112Z,157703.88
2022-12-28T17:09:02.282Z,157706.50
2022-12-28T17:11:29.996Z,157686.56
2022-12-28T17:14:29.347Z,157706.50
2022-12-28T17:17:03.118Z,157706.50
2022-12-28T17:19:30.609Z,157701.22
2022-12-28T17:21:57.834Z,157707.88
2022-12-28T17:24:25.477Z,157709.19
2022-12-28T17:26:52.913Z,157702.53
2022-12-28T17:29:20.707Z,157714.47
2022-12-28T17:31:48.131Z,157717.16
2022-12-28T17:34:16.331Z,157719.78
2022-12-28T17:36:43.672Z,157737.09
2022-12-28T17:39:11.235Z,157725.13
2022-12-28T17:41:38.536Z,157730.44
2022-12-28T17:44:06.408Z,157731.75
2022-12-28T17:46:38.004Z,157727.75
2022-12-28T17:49:05.881Z,157738.41
2022-12-28T17:51:34.703Z,157733.09
2022-12-28T17:54:02.673Z,157746.38
2022-12-28T17:56:29.965Z,157727.75
2022-12-28T17:58:58.875Z,157739.72
2022-12-28T18:01:28.051Z,157738.41
2022-12-28T18:03:56.870Z,157751.69
2022-12-28T18:06:25.710Z,157746.38
2022-12-28T18:08:53.507Z,157754.34
2022-12-28T18:11:20.717Z,157762.31
2022-12-28T18:13:48.692Z,157770.28
2022-12-28T18:16:17.611Z,157762.31
2022-12-28T18:18:45.857Z,157772.97
2022-12-28T18:21:21.074Z,157790.22
2022-12-28T18:23:52.210Z,157798.19
2022-12-28T18:26:26.455Z,157791.53
2022-12-28T18:28:55.485Z,157807.53
2022-12-28T18:31:23.378Z,157806.19
2022-12-28T18:33:51.143Z,157798.19
2022-12-28T18:36:18.772Z,157803.50
2022-12-28T18:38:47.756Z,157799.56
2022-12-28T18:41:17.849Z,157804.81
2022-12-28T18:43:45.546Z,157811.47
2022-12-28T18:46:13.198Z,157811.47
2022-12-28T18:48:41.549Z,157807.53
2022-12-28T18:51:14.547Z,157812.78
2022-12-28T18:53:42.266Z,157818.13
2022-12-28T18:56:10.931Z,157822.13
2022-12-28T18:58:41.068Z,157823.44
2022-12-28T19:04:03.612Z,157831.41
2022-12-28T19:06:33.109Z,157831.41
2022-12-28T19:09:00.998Z,157826.09
2022-12-28T19:11:29.188Z,157830.09
2022-12-28T19:13:56.969Z,157826.09
2022-12-28T19:16:30.582Z,157842.06
2022-12-28T19:18:59.503Z,157831.41
2022-12-28T19:21:37.996Z,157826.09
2022-12-28T19:24:13.736Z,157830.09
2022-12-28T19:26:41.681Z,157843.41
2022-12-28T19:29:12.299Z,157839.38
2022-12-28T19:31:39.705Z,157835.44
2022-12-28T19:34:07.458Z,157838.06
2022-12-28T19:36:34.909Z,157842.06
2022-12-28T19:39:02.595Z,157838.06
2022-12-28T19:41:29.879Z,157840.72
2022-12-28T19:43:57.659Z,157836.75
2022-12-28T19:46:31.738Z,157830.09
2022-12-28T19:49:01.795Z,157839.38
2022-12-28T19:51:31.601Z,157847.34
2022-12-28T19:54:01.152Z,157828.78
2022-12-28T19:56:28.595Z,157850.03
2022-12-28T19:59:04.989Z,157847.34
2022-12-28T20:01:33.637Z,157842.06
2022-12-28T20:04:04.456Z,157830.09
2022-12-28T20:06:37.543Z,157828.78
2022-12-28T20:09:05.673Z,157844.72
2022-12-28T20:11:33.148Z,157852.69
2022-12-28T20:14:02.481Z,157855.38
2022-12-28T20:16:32.355Z,157844.72
2022-12-28T20:19:02.025Z,157830.09
2022-12-28T20:21:30.001Z,157846.03
2022-12-28T20:23:58.042Z,157831.41
2022-12-28T20:26:27.097Z,157827.47
2022-12-28T20:28:56.775Z,157826.09
2022-12-28T20:31:24.695Z,157834.09
2022-12-28T20:33:52.737Z,157843.41
2022-12-28T20:36:25.255Z,157846.03
2022-12-28T20:38:53.919Z,157842.06
2022-12-28T20:41:42.890Z,157830.09
2022-12-28T20:44:13.558Z,157836.75
2022-12-28T20:46:43.188Z,157828.78
2022-12-28T20:49:11.468Z,157831.41
2022-12-28T20:51:39.025Z,157836.75
2022-12-28T20:54:06.783Z,157830.09
2022-12-28T20:56:38.383Z,157799.56
2022-12-28T20:59:06.283Z,157834.09
2022-12-28T21:01:36.478Z,157826.09
2022-12-28T21:04:05.455Z,157826.09
2022-12-28T21:06:33.321Z,157846.03
2022-12-28T21:09:01.374Z,157832.75
2022-12-28T21:11:31.203Z,157828.78
2022-12-28T21:13:59.816Z,157835.44
2022-12-28T21:16:27.687Z,157826.09
2022-12-28T21:18:55.901Z,157832.75
2022-12-28T21:21:23.514Z,157856.69
2022-12-28T21:23:55.081Z,157850.03
2022-12-28T21:26:22.443Z,157838.06
2022-12-28T21:28:50.252Z,157830.09
2022-12-28T21:31:17.769Z,157835.44
2022-12-28T21:33:45.484Z,157844.72
2022-12-28T21:36:17.498Z,157846.03
2022-12-28T21:38:46.973Z,157839.38
2022-12-28T21:41:37.818Z,157854.00
2022-12-28T21:44:06.812Z,157848.72
2022-12-28T21:46:36.009Z,157848.72
2022-12-28T21:49:04.746Z,157858.00
2022-12-28T21:51:32.683Z,157822.13
2022-12-28T21:54:04.199Z,157856.69
2022-12-28T21:56:32.933Z,157848.72
2022-12-28T21:59:01.800Z,157851.38
2022-12-28T22:01:48.024Z,157863.34
2022-12-28T22:04:36.728Z,157865.97
2022-12-28T22:07:05.722Z,157876.63
2022-12-28T22:09:53.463Z,157877.97
2022-12-28T22:12:39.580Z,157880.59
2022-12-28T22:15:31.628Z,157881.91
2022-12-28T22:18:08.412Z,157881.91
2022-12-28T22:20:37.354Z,157885.94
2022-12-28T22:23:05.447Z,157875.25
2022-12-28T22:25:33.665Z,157879.28
2022-12-28T22:28:01.512Z,157884.59
2022-12-28T22:30:30.816Z,157903.19
2022-12-28T22:32:58.309Z,157883.28
2022-12-28T22:35:26.373Z,157881.91
2022-12-28T22:37:54.062Z,157873.94
2022-12-28T22:40:21.929Z,157880.59
2022-12-28T22:42:50.592Z,157883.28
2022-12-28T22:45:20.610Z,157884.59
2022-12-28T22:47:48.569Z,157897.91
2022-12-28T22:50:17.961Z,157889.88
2022-12-28T22:52:45.695Z,157903.19
2022-12-28T22:55:13.681Z,157895.22
2022-12-28T22:57:41.158Z,157897.91
2022-12-28T23:00:12.656Z,157901.88
2022-12-28T23:02:40.259Z,157899.22
2022-12-28T23:05:08.440Z,157904.56
2022-12-28T23:07:36.551Z,157909.84
2022-12-28T23:10:04.873Z,157895.22
2022-12-28T23:12:32.331Z,157909.84
2022-12-28T23:15:18.665Z,157915.16
2022-12-28T23:18:10.663Z,157924.44
2022-12-28T23:20:57.966Z,157928.47
2022-12-28T23:23:43.757Z,157913.84
2022-12-28T23:26:29.761Z,157924.44
2022-12-28T23:28:57.008Z,157921.81
2022-12-28T23:31:24.879Z,157921.81
2022-12-28T23:33:52.844Z,157927.16
2022-12-28T23:36:21.671Z,157921.81
2022-12-28T23:38:50.851Z,157909.84
2022-12-28T23:41:36.926Z,157924.44
2022-12-28T23:44:04.287Z,157921.81
2022-12-28T23:46:32.083Z,157911.16
2022-12-28T23:48:59.539Z,157915.16
2022-12-28T23:51:27.244Z,157924.44
2022-12-28T23:53:54.650Z,157917.81
2022-12-28T23:56:22.190Z,157920.50
2022-12-28T23:58:49.914Z,157927.16
